Time;durP1;ratioP1;P1;durP2;ratioP2;P2;SDS_P1;SDS_P2;PMS_P1;PMS_P2;Temp;Humidity;BMP_temperature;BMP_pressure;BME280_temperature;BME280_humidity;BME280_pressure;Samples;Min_cycle;Max_cycle;Signal;HPM_P1;HPM_P2
2022/11/19 00:00:44;;;;;;;1.67;1.05;;;8.50;99.90;;;;;;5092637;28;20027;-78
2022/11/19 00:03:11;;;;;;;3.03;1.58;;;8.40;99.90;;;;;;5092697;28;20028;-78
2022/11/19 00:05:45;;;;;;;2.85;1.30;;;8.40;99.90;;;;;;5091016;28;20046;-78
2022/11/19 00:08:17;;;;;;;2.78;1.50;;;8.40;99.90;;;;;;5091292;28;20039;-78
2022/11/19 00:10:43;;;;;;;;;;;8.40;99.90;;;;;;5092958;28;20024;-78
2022/11/19 00:13:08;;;;;;;1.98;1.33;;;8.40;99.90;;;;;;5091921;28;19904;-78
2022/11/19 00:15:35;;;;;;;1.52;1.17;;;8.30;99.90;;;;;;5092650;28;20401;-78
2022/11/19 00:18:01;;;;;;;3.88;1.27;;;8.30;99.90;;;;;;5092389;28;20474;-78
2022/11/19 00:20:27;;;;;;;2.85;2.00;;;8.30;99.90;;;;;;5092066;28;20035;-78
2022/11/19 00:22:55;;;;;;;2.50;1.42;;;8.20;99.90;;;;;;5092353;28;20081;-79
2022/11/19 00:25:22;;;;;;;1.88;1.25;;;8.20;99.90;;;;;;5092285;28;20047;-78
2022/11/19 00:27:49;;;;;;;3.13;1.70;;;8.20;99.90;;;;;;5073345;28;20028;-78
2022/11/19 00:30:15;;;;;;;2.53;1.58;;;8.20;99.90;;;;;;5072358;28;20078;-78
2022/11/19 00:32:41;;;;;;;2.33;1.45;;;8.20;99.90;;;;;;5087523;28;20053;-78
2022/11/19 00:35:07;;;;;;;2.08;1.20;;;8.20;99.90;;;;;;5091132;28;20036;-78
2022/11/19 00:37:32;;;;;;;2.53;1.10;;;8.20;99.90;;;;;;5076468;28;20099;-78
2022/11/19 00:39:58;;;;;;;0.80;0.80;;;8.30;99.90;;;;;;5075806;28;20166;-78
2022/11/19 00:42:24;;;;;;;1.75;1.65;;;8.20;99.90;;;;;;5101635;28;20024;-78
2022/11/19 00:44:50;;;;;;;1.20;0.90;;;8.20;99.90;;;;;;5117036;28;20031;-78
2022/11/19 00:47:15;;;;;;;1.75;1.10;;;8.30;99.90;;;;;;5116668;28;20380;-78
2022/11/19 00:49:41;;;;;;;1.00;0.90;;;8.20;99.90;;;;;;5110309;28;20062;-78
2022/11/19 00:52:07;;;;;;;1.20;0.90;;;8.20;99.90;;;;;;5094750;28;20020;-78
2022/11/19 00:54:33;;;;;;;2.13;0.90;;;8.30;99.90;;;;;;5096358;28;20028;-78
2022/11/19 00:56:59;;;;;;;1.58;0.90;;;8.30;99.90;;;;;;5094745;28;20031;-78
2022/11/19 00:59:25;;;;;;;1.20;0.95;;;8.30;99.90;;;;;;5095806;28;20107;-78
2022/11/19 01:01:51;;;;;;;1.10;0.80;;;8.20;99.90;;;;;;5096154;28;20355;-78
2022/11/19 01:04:16;;;;;;;0.95;0.80;;;8.30;99.90;;;;;;5096067;28;20024;-78
2022/11/19 01:06:42;;;;;;;2.15;0.88;;;8.30;99.90;;;;;;5095889;28;20070;-78
2022/11/19 01:09:08;;;;;;;2.83;0.80;;;8.30;99.90;;;;;;5095962;28;20060;-78
2022/11/19 01:11:36;;;;;;;1.02;0.90;;;8.30;99.90;;;;;;5095662;28;20448;-78
2022/11/19 01:14:03;;;;;;;2.13;0.93;;;8.30;99.90;;;;;;5095380;28;20585;-78
2022/11/19 01:16:30;;;;;;;1.45;0.98;;;8.30;99.90;;;;;;5094070;28;20032;-77
2022/11/19 01:18:56;;;;;;;2.30;0.80;;;8.40;99.90;;;;;;5095990;28;20079;-78
2022/11/19 01:21:24;;;;;;;1.65;0.90;;;8.40;99.90;;;;;;5095541;28;20035;-78
2022/11/19 01:23:50;;;;;;;0.85;0.80;;;8.40;99.90;;;;;;5095327;28;20585;-78
2022/11/19 01:26:16;;;;;;;1.23;0.93;;;8.50;99.90;;;;;;5089786;28;20096;-77
2022/11/19 01:28:42;;;;;;;2.10;1.30;;;8.40;99.90;;;;;;5075047;28;20033;-78
2022/11/19 01:31:10;;;;;;;2.10;1.20;;;8.40;99.90;;;;;;5074987;28;20104;-78
2022/11/19 01:33:36;;;;;;;1.48;1.08;;;8.40;99.90;;;;;;5075467;28;20029;-78
2022/11/19 01:36:05;;;;;;;1.10;1.00;;;8.30;99.90;;;;;;5075126;28;20020;-78
2022/11/19 01:38:32;;;;;;;1.02;0.85;;;8.30;99.90;;;;;;5090577;28;20089;-78
2022/11/19 01:40:58;;;;;;;1.25;0.95;;;8.40;99.90;;;;;;5076774;28;20020;-78
2022/11/19 01:43:48;;;;;;;1.67;0.80;;;8.40;99.90;;;;;;5114108;28;20165;-78
2022/11/19 01:46:20;;;;;;;0.80;0.80;;;8.40;99.90;;;;;;5114658;28;20031;-77
2022/11/19 01:49:02;;;;;;;1.10;0.80;;;8.40;99.90;;;;;;5115536;28;20024;-78
2022/11/19 01:51:42;;;;;;;0.80;0.80;;;8.40;99.90;;;;;;5073468;28;20028;-78
2022/11/19 01:54:29;;;;;;;0.70;0.68;;;8.40;99.90;;;;;;5074864;28;20082;-77
2022/11/19 01:57:00;;;;;;;1.27;0.90;;;8.40;99.90;;;;;;5073346;28;20028;-78
2022/11/19 01:59:28;;;;;;;0.65;0.65;;;8.40;99.90;;;;;;5074407;28;20035;-78
2022/11/19 02:01:54;;;;;;;0.73;0.50;;;8.40;99.90;;;;;;5074265;28;20024;-78
2022/11/19 02:04:21;;;;;;;0.57;0.57;;;8.30;99.90;;;;;;5074867;28;20474;-78
2022/11/19 02:06:47;;;;;;;0.50;0.50;;;8.40;99.90;;;;;;5074534;28;20561;-77
2022/11/19 02:09:12;;;;;;;0.40;0.40;;;8.30;99.90;;;;;;5073265;28;20116;-78
2022/11/19 02:12:22;;;;;;;0.47;0.47;;;8.50;99.90;;;;;;5074231;28;20024;-78
2022/11/19 02:15:10;;;;;;;0.47;0.47;;;8.40;99.90;;;;;;5078226;28;20554;-77
2022/11/19 02:18:08;;;;;;;0.68;0.65;;;8.40;99.90;;;;;;5093218;28;20051;-78
2022/11/19 02:20:53;;;;;;;0.50;0.50;;;8.40;99.90;;;;;;4995646;28;20108;-78
2022/11/19 02:23:19;;;;;;;0.70;0.70;;;8.50;99.90;;;;;;4995767;28;20080;-77
2022/11/19 02:25:56;;;;;;;0.50;0.50;;;8.50;99.90;;;;;;5011768;28;20447;-77
2022/11/19 02:28:46;;;;;;;0.85;0.50;;;8.50;99.90;;;;;;5012044;28;20030;-77
2022/11/19 02:31:39;;;;;;;0.50;0.38;;;8.50;99.90;;;;;;5011604;28;20168;-77
2022/11/19 02:34:13;;;;;;;0.63;0.40;;;8.60;99.90;;;;;;5012003;28;20037;-77
2022/11/19 02:37:26;;;;;;;0.90;0.50;;;8.60;99.90;;;;;;5011571;28;20029;-77
2022/11/19 02:39:58;;;;;;;1.67;0.45;;;8.50;99.90;;;;;;4972750;28;20030;-77
2022/11/19 02:42:35;;;;;;;1.00;0.45;;;8.50;99.90;;;;;;4984833;28;20067;-77
2022/11/19 02:45:27;;;;;;;0.50;0.50;;;8.50;99.90;;;;;;4992029;28;20034;-77
2022/11/19 02:48:03;;;;;;;0.30;0.30;;;8.50;99.90;;;;;;4992094;28;20027;-77
2022/11/19 02:50:36;;;;;;;0.40;0.40;;;8.50;99.90;;;;;;4979807;28;20513;-78
2022/11/19 02:53:04;;;;;;;0.30;0.30;;;8.40;99.90;;;;;;4972581;28;20058;-77
2022/11/19 02:55:30;;;;;;;0.52;0.50;;;8.50;99.90;;;;;;4972666;28;20043;-78
2022/11/19 02:58:08;;;;;;;0.50;0.50;;;8.50;99.90;;;;;;5025165;28;20038;-77
2022/11/19 03:06:25;;;;;;;0.50;0.30;;;8.50;99.90;;;;;;5031159;28;20056;-78
2022/11/19 03:08:51;;;;;;;0.75;0.40;;;8.40;99.90;;;;;;5031207;28;20038;-77
2022/11/19 03:11:26;;;;;;;0.35;0.30;;;8.40;99.90;;;;;;5030424;28;20034;-78
2022/11/19 03:17:11;;;;;;;0.75;0.40;;;8.40;99.90;;;;;;5093406;28;20031;-78
2022/11/19 03:19:59;;;;;;;0.50;0.38;;;8.40;99.90;;;;;;5093837;28;20026;-77
2022/11/19 03:22:40;;;;;;;0.35;0.35;;;8.40;99.90;;;;;;5093299;28;20020;-78
2022/11/19 03:25:31;;;;;;;0.40;0.40;;;8.40;99.90;;;;;;5093098;28;20094;-78
2022/11/19 03:28:03;;;;;;;1.38;0.45;;;8.40;99.90;;;;;;5072939;28;20039;-78
2022/11/19 03:30:30;;;;;;;0.60;0.60;;;8.30;99.90;;;;;;5088272;28;20050;-77
2022/11/19 03:33:00;;;;;;;0.40;0.40;;;8.30;99.90;;;;;;5088181;28;20119;-77
2022/11/19 03:35:32;;;;;;;1.00;0.43;;;8.30;99.90;;;;;;5072944;28;20024;-77
2022/11/19 03:38:01;;;;;;;0.40;0.40;;;8.30;99.90;;;;;;5087965;28;20033;-77
2022/11/19 03:40:30;;;;;;;0.40;0.40;;;8.30;99.90;;;;;;5072846;28;20021;-77
2022/11/19 03:42:59;;;;;;;0.30;0.30;;;8.30;99.90;;;;;;5108443;28;20547;-78
2022/11/19 03:45:28;;;;;;;0.32;0.32;;;8.30;99.90;;;;;;5113476;28;20016;-77
2022/11/19 03:47:55;;;;;;;0.30;0.30;;;8.30;99.90;;;;;;5113321;28;20016;-77
2022/11/19 03:50:34;;;;;;;0.63;0.30;;;8.30;99.90;;;;;;5101444;28;20043;-78
2022/11/19 03:53:00;;;;;;;0.40;0.40;;;8.30;99.90;;;;;;5093103;28;20050;-78
2022/11/19 03:55:42;;;;;;;0.25;0.25;;;8.20;99.90;;;;;;5092925;28;20382;-78
2022/11/19 03:58:09;;;;;;;0.40;0.25;;;8.20;99.90;;;;;;5092352;28;20039;-78
2022/11/19 04:00:35;;;;;;;1.85;0.50;;;8.20;99.90;;;;;;5091185;28;20042;-78
2022/11/19 04:03:01;;;;;;;0.38;0.38;;;8.20;99.90;;;;;;5092742;28;20470;-77
2022/11/19 04:05:27;;;;;;;1.48;0.40;;;8.10;99.90;;;;;;5092452;28;20020;-78
2022/11/19 04:07:52;;;;;;;0.40;0.40;;;8.10;99.90;;;;;;5090782;28;20031;-77
2022/11/19 04:10:18;;;;;;;0.32;0.32;;;8.10;99.90;;;;;;5092723;28;20031;-77
2022/11/19 04:12:44;;;;;;;0.32;0.32;;;8.10;99.90;;;;;;5091655;28;20034;-77
2022/11/19 04:15:14;;;;;;;0.40;0.40;;;8.10;99.90;;;;;;5092513;28;20069;-77
2022/11/19 04:17:40;;;;;;;0.43;0.43;;;8.10;99.90;;;;;;5092446;28;20138;-77
2022/11/19 04:20:06;;;;;;;4.57;0.68;;;8.20;99.90;;;;;;5091144;28;20529;-77
2022/11/19 04:22:32;;;;;;;0.38;0.38;;;8.20;99.90;;;;;;5092268;28;20020;-77
2022/11/19 04:24:58;;;;;;;0.32;0.30;;;8.10;99.90;;;;;;5091940;28;20066;-77
2022/11/19 04:27:24;;;;;;;0.95;0.40;;;8.10;99.90;;;;;;5077074;28;20036;-78
2022/11/19 04:29:50;;;;;;;0.55;0.40;;;8.10;99.90;;;;;;5072031;28;20485;-77
2022/11/19 04:32:16;;;;;;;0.43;0.43;;;8.10;99.90;;;;;;5072276;28;20883;-77
2022/11/19 04:34:41;;;;;;;0.45;0.45;;;8.20;99.90;;;;;;5071951;28;20063;-78
2022/11/19 04:37:07;;;;;;;0.40;0.40;;;8.10;99.90;;;;;;5071699;28;20474;-78
2022/11/19 04:39:32;;;;;;;0.30;0.30;;;8.10;99.90;;;;;;5072077;28;20047;-77
2022/11/19 04:41:58;;;;;;;0.57;0.45;;;8.20;99.90;;;;;;5090561;28;20107;-78
2022/11/19 04:44:24;;;;;;;0.77;0.30;;;8.20;99.90;;;;;;5112284;28;20073;-77
2022/11/19 04:46:49;;;;;;;0.32;0.32;;;8.20;99.90;;;;;;5112883;28;20027;-78
2022/11/19 04:49:15;;;;;;;1.27;0.30;;;8.20;99.90;;;;;;5109411;28;20040;-78
2022/11/19 04:51:41;;;;;;;0.40;0.40;;;8.20;99.90;;;;;;5092543;28;20093;-78
2022/11/19 04:54:09;;;;;;;0.55;0.40;;;8.20;99.90;;;;;;5092124;28;20104;-79
2022/11/19 04:56:35;;;;;;;0.35;0.30;;;8.10;99.90;;;;;;5090579;28;20089;-78
2022/11/19 04:59:02;;;;;;;1.45;0.50;;;8.10;99.90;;;;;;5091633;28;20111;-78
2022/11/19 05:01:28;;;;;;;2.03;0.30;;;8.10;99.90;;;;;;5092101;28;20103;-78
2022/11/19 05:03:54;;;;;;;0.25;0.25;;;8.10;99.90;;;;;;5091847;28;20099;-78
2022/11/19 05:06:19;;;;;;;0.32;0.32;;;8.10;99.90;;;;;;5092280;28;20024;-79
2022/11/19 05:08:45;;;;;;;0.40;0.40;;;8.10;99.90;;;;;;5091691;28;20732;-78
2022/11/19 05:11:11;;;;;;;0.40;0.40;;;8.00;99.90;;;;;;5090398;28;20031;-78
2022/11/19 05:13:36;;;;;;;2.17;0.40;;;8.10;99.90;;;;;;5091599;28;20073;-78
2022/11/19 05:16:02;;;;;;;0.38;0.38;;;8.10;99.90;;;;;;5092187;28;20110;-78
2022/11/19 05:18:28;;;;;;;0.75;0.50;;;8.10;99.90;;;;;;5090218;28;20065;-78
2022/11/19 05:20:53;;;;;;;1.67;0.50;;;8.10;99.90;;;;;;5093689;28;20085;-78
2022/11/19 05:23:19;;;;;;;0.32;0.32;;;8.10;99.90;;;;;;5093935;28;20493;-78
2022/11/19 05:25:46;;;;;;;1.02;0.40;;;8.00;99.90;;;;;;5093776;28;20055;-78
2022/11/19 05:28:11;;;;;;;0.40;0.40;;;8.10;99.90;;;;;;5075171;28;20103;-78
2022/11/19 05:30:37;;;;;;;0.38;0.38;;;8.20;99.90;;;;;;5075205;28;20553;-78
2022/11/19 05:33:03;;;;;;;0.60;0.40;;;8.20;99.90;;;;;;5075234;28;20030;-78
2022/11/19 05:35:28;;;;;;;0.52;0.35;;;8.20;99.90;;;;;;5073863;28;20066;-78
2022/11/19 05:37:54;;;;;;;0.28;0.28;;;8.20;99.90;;;;;;5074968;28;20025;-78
2022/11/19 05:40:20;;;;;;;0.40;0.40;;;8.20;99.90;;;;;;5075283;28;20432;-78
2022/11/19 05:42:45;;;;;;;0.75;0.45;;;8.10;99.90;;;;;;5105067;28;20023;-78
2022/11/19 05:45:11;;;;;;;0.40;0.30;;;8.10;99.90;;;;;;5115745;28;20027;-78
2022/11/19 05:47:37;;;;;;;0.40;0.40;;;8.10;99.90;;;;;;5115505;28;20020;-78
2022/11/19 05:50:04;;;;;;;0.32;0.32;;;8.10;99.90;;;;;;5106290;28;20016;-78
2022/11/19 05:52:30;;;;;;;0.30;0.30;;;8.20;99.90;;;;;;5093402;28;20024;-78
2022/11/19 05:54:55;;;;;;;1.33;0.50;;;8.10;99.90;;;;;;5095279;28;20030;-78
2022/11/19 05:57:21;;;;;;;0.80;0.40;;;8.10;99.90;;;;;;5095185;28;20020;-78
2022/11/19 05:59:47;;;;;;;0.70;0.50;;;8.00;99.90;;;;;;5093253;28;20077;-78
2022/11/19 06:02:12;;;;;;;1.02;0.50;;;8.00;99.90;;;;;;5094892;28;20050;-78
2022/11/19 06:04:38;;;;;;;0.68;0.55;;;8.00;99.90;;;;;;5094794;28;20035;-78
2022/11/19 06:07:04;;;;;;;1.65;0.80;;;8.00;99.90;;;;;;5094784;28;20024;-78
2022/11/19 06:09:29;;;;;;;1.80;1.13;;;8.00;99.90;;;;;;5094854;28;20032;-78
2022/11/19 06:11:55;;;;;;;0.80;0.80;;;7.90;99.90;;;;;;5094558;28;20032;-78
2022/11/19 06:14:25;;;;;;;1.00;1.00;;;7.80;99.90;;;;;;5094389;28;20171;-78
2022/11/19 06:16:58;;;;;;;2.47;1.52;;;8.00;99.90;;;;;;5093442;28;20093;-78
2022/11/19 06:19:25;;;;;;;5.57;2.30;;;7.90;99.90;;;;;;5093099;28;20035;-78
2022/11/19 06:21:51;;;;;;;5.82;2.50;;;8.00;99.90;;;;;;5094173;28;20016;-78
2022/11/19 06:24:17;;;;;;;8.73;3.05;;;7.90;99.90;;;;;;5094285;28;20052;-78
2022/11/19 06:26:43;;;;;;;18.77;8.07;;;7.90;99.90;;;;;;5084716;28;20028;-78
2022/11/19 06:29:13;;;;;;;17.33;8.07;;;7.90;99.90;;;;;;5073782;28;20040;-78
2022/11/19 06:31:39;;;;;;;7.63;4.28;;;7.90;99.90;;;;;;5073986;28;20020;-78
2022/11/19 06:34:05;;;;;;;6.75;2.60;;;7.90;99.90;;;;;;5074234;28;20039;-78
2022/11/19 06:36:31;;;;;;;2.70;1.98;;;7.90;99.90;;;;;;5073716;28;20020;-78
2022/11/19 06:38:56;;;;;;;4.03;1.50;;;7.90;99.90;;;;;;5072586;28;20563;-78
2022/11/19 06:41:22;;;;;;;2.42;0.95;;;8.00;99.90;;;;;;5082368;28;20035;-78
2022/11/19 06:43:48;;;;;;;1.10;0.80;;;7.90;99.90;;;;;;5114103;28;20053;-78
2022/11/19 06:46:14;;;;;;;0.95;0.70;;;7.90;99.90;;;;;;5114695;28;20058;-78
2022/11/19 06:48:40;;;;;;;1.83;0.55;;;7.90;99.90;;;;;;5113070;28;20026;-78
2022/11/19 06:51:06;;;;;;;1.77;0.73;;;7.90;99.90;;;;;;5095800;28;20102;-77
2022/11/19 06:53:32;;;;;;;0.60;0.60;;;7.90;99.90;;;;;;5094094;28;20020;-78
2022/11/19 06:56:05;;;;;;;1.30;0.65;;;7.90;99.90;;;;;;5094072;28;20469;-77
2022/11/19 06:58:31;;;;;;;0.75;0.52;;;7.90;99.90;;;;;;5093621;28;20019;-78
2022/11/19 07:00:57;;;;;;;1.63;0.80;;;8.00;99.90;;;;;;5093973;28;20028;-77
2022/11/19 07:03:24;;;;;;;0.60;0.60;;;8.00;99.90;;;;;;5093915;28;20587;-78
2022/11/19 07:05:55;;;;;;;0.70;0.70;;;8.00;99.90;;;;;;5093451;28;20036;-78
2022/11/19 07:08:22;;;;;;;1.98;0.70;;;8.00;99.90;;;;;;5093695;28;20028;-78
2022/11/19 07:10:47;;;;;;;0.70;0.70;;;7.90;99.90;;;;;;5093872;28;20028;-77
2022/11/19 07:13:13;;;;;;;0.68;0.68;;;8.00;99.90;;;;;;5093276;28;20024;-78
2022/11/19 07:15:39;;;;;;;2.28;0.90;;;8.00;99.90;;;;;;5093469;28;20040;-77
2022/11/19 07:18:04;;;;;;;0.70;0.70;;;8.00;99.90;;;;;;5093455;28;20031;-77
2022/11/19 07:20:30;;;;;;;1.08;0.93;;;8.00;99.90;;;;;;5093391;28;20024;-77
2022/11/19 07:22:56;;;;;;;3.78;0.80;;;8.00;99.90;;;;;;5093439;28;20403;-78
2022/11/19 07:25:22;;;;;;;0.65;0.40;;;8.00;99.90;;;;;;5091761;28;20109;-78
2022/11/19 07:27:48;;;;;;;0.82;0.80;;;8.00;99.90;;;;;;5074357;28;20039;-77
2022/11/19 07:30:14;;;;;;;1.23;0.70;;;8.00;99.90;;;;;;5073245;28;20056;-78
2022/11/19 07:32:40;;;;;;;0.63;0.63;;;8.00;99.90;;;;;;5073035;28;20099;-78
2022/11/19 07:35:08;;;;;;;1.83;0.65;;;8.00;99.90;;;;;;5072733;28;20099;-77
2022/11/19 07:37:34;;;;;;;1.55;0.85;;;8.00;99.90;;;;;;5072791;28;20024;-77
2022/11/19 07:40:01;;;;;;;2.08;0.75;;;8.00;99.90;;;;;;5072623;28;20028;-77
2022/11/19 07:45:11;;;;;;;0.73;0.63;;;8.00;99.90;;;;;;5113033;28;20027;-77
2022/11/19 07:47:36;;;;;;;0.50;0.50;;;7.80;99.90;;;;;;5111959;28;20024;-77
2022/11/19 07:50:03;;;;;;;1.13;0.70;;;7.90;99.90;;;;;;5103861;28;20050;-78
2022/11/19 07:52:30;;;;;;;0.60;0.60;;;7.90;99.90;;;;;;5092822;28;20024;-77
2022/11/19 07:54:55;;;;;;;0.75;0.60;;;7.90;99.90;;;;;;5092881;28;20027;-78
2022/11/19 07:57:21;;;;;;;1.50;0.80;;;7.80;99.90;;;;;;5092916;28;20035;-77
2022/11/19 07:59:47;;;;;;;0.60;0.60;;;7.80;99.90;;;;;;5091045;28;20509;-78
2022/11/19 08:02:13;;;;;;;1.75;0.70;;;7.80;99.90;;;;;;5092894;28;20393;-78
2022/11/19 08:04:39;;;;;;;1.75;0.85;;;7.80;99.90;;;;;;5092433;28;20024;-78
2022/11/19 08:07:05;;;;;;;1.00;0.93;;;7.80;99.90;;;;;;5092703;28;20020;-78
2022/11/19 08:09:31;;;;;;;2.72;0.98;;;7.80;99.90;;;;;;5091180;28;20031;-78
2022/11/19 08:11:57;;;;;;;1.15;0.80;;;7.80;99.90;;;;;;5092272;28;20031;-78
2022/11/19 08:14:23;;;;;;;0.98;0.90;;;7.80;99.90;;;;;;5090919;28;20013;-78
2022/11/19 08:19:33;;;;;;;1.08;0.90;;;7.70;99.90;;;;;;5092545;28;20077;-77
2022/11/19 08:21:58;;;;;;;1.52;1.00;;;7.80;99.90;;;;;;5091216;28;20024;-78
2022/11/19 08:24:24;;;;;;;0.50;0.50;;;7.80;99.90;;;;;;5091981;28;20044;-78
2022/11/19 08:26:50;;;;;;;2.60;0.70;;;7.90;99.90;;;;;;5081632;28;20032;-78
2022/11/19 08:29:19;;;;;;;1.75;0.85;;;7.90;99.90;;;;;;5071851;28;20390;-78
2022/11/19 08:31:46;;;;;;;2.10;0.70;;;8.00;99.90;;;;;;5071838;28;20024;-78
2022/11/19 08:34:13;;;;;;;1.58;0.88;;;7.90;99.90;;;;;;5072399;28;20032;-78
2022/11/19 08:36:38;;;;;;;2.95;0.77;;;8.10;99.90;;;;;;5070797;28;20494;-78
2022/11/19 08:39:05;;;;;;;1.15;1.05;;;8.10;99.90;;;;;;5072003;28;20037;-77
2022/11/19 08:44:16;;;;;;;0.57;0.57;;;8.10;99.90;;;;;;5112666;28;20073;-78
2022/11/19 08:46:42;;;;;;;1.45;0.80;;;8.20;99.90;;;;;;5112282;28;20019;-78
2022/11/19 08:49:08;;;;;;;1.00;0.70;;;8.20;99.90;;;;;;5110711;28;20028;-78
2022/11/19 08:51:34;;;;;;;0.63;0.63;;;8.30;99.90;;;;;;5092174;28;20088;-78
2022/11/19 08:53:59;;;;;;;1.38;1.15;;;8.20;99.90;;;;;;5090719;28;20111;-78
2022/11/19 08:56:25;;;;;;;1.92;1.02;;;8.20;99.90;;;;;;5096513;28;20426;-78
2022/11/19 08:58:53;;;;;;;1.60;0.98;;;8.20;99.90;;;;;;5096017;28;20529;-78
2022/11/19 09:01:19;;;;;;;1.67;0.77;;;8.20;99.90;;;;;;5096001;28;20020;-78
2022/11/19 09:03:44;;;;;;;0.70;0.70;;;8.10;99.90;;;;;;5094649;28;20033;-78
2022/11/19 09:06:10;;;;;;;0.70;0.65;;;8.10;99.90;;;;;;5096199;28;20034;-78
2022/11/19 09:08:37;;;;;;;0.95;0.60;;;8.20;99.90;;;;;;5096173;28;20023;-79
2022/11/19 09:11:12;;;;;;;0.50;0.50;;;8.10;99.90;;;;;;5095978;28;20031;-78
2022/11/19 09:13:38;;;;;;;0.60;0.60;;;8.00;99.90;;;;;;5096006;28;20078;-78
2022/11/19 09:16:04;;;;;;;0.60;0.60;;;7.90;99.90;;;;;;5095652;28;20447;-78
2022/11/19 09:18:30;;;;;;;0.82;0.70;;;8.00;99.90;;;;;;5095795;28;20051;-78
2022/11/19 09:20:57;;;;;;;0.68;0.60;;;8.00;99.90;;;;;;5095955;28;20081;-78
2022/11/19 09:23:24;;;;;;;0.93;0.93;;;8.10;99.90;;;;;;5095744;28;20024;-78
2022/11/19 09:26:01;;;;;;;1.02;0.90;;;8.10;99.90;;;;;;5093134;28;20072;-78
2022/11/19 09:28:28;;;;;;;2.10;1.05;;;8.10;99.90;;;;;;5075205;28;20033;-79
2022/11/19 09:30:58;;;;;;;1.92;1.60;;;8.20;99.90;;;;;;5074778;28;20036;-79
2022/11/19 09:33:27;;;;;;;1.83;1.45;;;8.20;99.90;;;;;;5074937;28;20068;-79
2022/11/19 09:35:53;;;;;;;1.70;1.42;;;8.20;99.90;;;;;;5074912;28;20028;-79
2022/11/19 09:38:19;;;;;;;1.25;1.15;;;8.30;99.90;;;;;;5075306;28;20035;-79
2022/11/19 09:40:52;;;;;;;5.25;3.10;;;8.30;99.90;;;;;;5073526;28;20024;-79
2022/11/19 09:43:30;;;;;;;6.45;4.03;;;8.40;99.90;;;;;;5074625;28;20112;-79
2022/11/19 09:46:16;;;;;;;5.55;4.03;;;8.50;99.90;;;;;;5073367;28;20036;-79
2022/11/19 09:48:42;;;;;;;3.08;2.38;;;8.40;99.90;;;;;;5075141;28;20032;-78
2022/11/19 09:51:14;;;;;;;3.97;2.25;;;8.40;99.90;;;;;;5092742;28;20020;-79
2022/11/19 09:53:43;;;;;;;2.30;1.83;;;8.60;99.90;;;;;;5095407;28;20073;-78
2022/11/19 09:56:15;;;;;;;2.38;1.90;;;8.70;99.90;;;;;;5095058;28;20095;-78
2022/11/19 09:58:42;;;;;;;2.55;1.75;;;8.70;99.90;;;;;;5094717;28;20028;-79
2022/11/19 10:01:17;;;;;;;2.25;1.25;;;8.70;99.90;;;;;;5094827;28;20036;-79
2022/11/19 10:03:49;;;;;;;1.85;1.35;;;8.80;99.90;;;;;;5095009;28;20016;-78
2022/11/19 10:06:14;;;;;;;1.35;1.20;;;8.90;99.90;;;;;;5092675;28;20028;-78
2022/11/19 10:09:04;;;;;;;2.03;0.90;;;9.00;99.90;;;;;;5093610;28;20077;-78
2022/11/19 10:11:42;;;;;;;1.13;1.02;;;9.10;99.90;;;;;;5094403;28;20028;-78
2022/11/19 10:14:20;;;;;;;1.20;1.10;;;8.90;99.90;;;;;;5094437;28;20023;-78
2022/11/19 10:17:08;;;;;;;1.30;1.20;;;8.90;99.90;;;;;;5094724;28;20024;-78
2022/11/19 10:19:53;;;;;;;2.88;1.73;;;9.10;99.90;;;;;;5094708;28;20073;-78
2022/11/19 10:22:30;;;;;;;2.78;2.17;;;9.00;99.90;;;;;;5093481;28;20020;-78
2022/11/19 10:25:16;;;;;;;3.17;2.33;;;8.90;99.90;;;;;;5094340;28;20044;-78
2022/11/19 10:27:50;;;;;;;2.80;2.33;;;8.90;99.90;;;;;;5076831;28;20047;-78
2022/11/19 10:30:20;;;;;;;3.40;2.38;;;9.10;99.90;;;;;;5074243;28;20056;-78
2022/11/19 10:33:09;;;;;;;3.35;2.58;;;9.10;99.90;;;;;;5074141;28;20040;-79
2022/11/19 10:35:42;;;;;;;2.85;2.20;;;9.00;99.90;;;;;;5074303;28;20112;-78
2022/11/19 10:38:36;;;;;;;3.65;1.80;;;9.00;99.90;;;;;;5074220;28;20020;-78
2022/11/19 10:41:20;;;;;;;3.97;2.72;;;9.10;99.90;;;;;;5074934;28;20035;-79
2022/11/19 10:44:08;;;;;;;3.72;2.42;;;9.00;99.90;;;;;;5114110;28;20016;-79
2022/11/19 10:46:34;;;;;;;2.30;1.92;;;9.00;99.90;;;;;;5114391;28;20028;-78
2022/11/19 10:49:01;;;;;;;3.10;1.73;;;8.90;99.90;;;;;;5114140;28;20023;-78
2022/11/19 10:51:28;;;;;;;2.90;1.75;;;9.00;99.90;;;;;;5093885;28;20032;-79
2022/11/19 10:53:56;;;;;;;3.10;2.15;;;9.00;99.90;;;;;;5093982;28;20067;-78
2022/11/19 10:56:35;;;;;;;2.65;1.63;;;9.10;99.90;;;;;;5093771;28;20047;-79
2022/11/19 10:59:13;;;;;;;2.13;1.73;;;9.20;99.90;;;;;;5093731;28;20044;-79
2022/11/19 11:01:44;;;;;;;3.00;2.08;;;9.40;99.90;;;;;;5092538;28;20081;-78
2022/11/19 11:04:27;;;;;;;2.03;1.60;;;9.50;99.90;;;;;;5093823;28;20095;-78
2022/11/19 11:06:56;;;;;;;4.05;1.65;;;9.80;99.90;;;;;;5093580;28;20031;-79
2022/11/19 11:09:38;;;;;;;2.28;1.80;;;10.10;99.90;;;;;;5094098;28;20028;-78
2022/11/19 11:15:22;;;;;;;1.23;1.13;;;10.20;99.90;;;;;;5093513;28;20062;-79
2022/11/19 11:18:09;;;;;;;1.52;1.20;;;10.30;99.90;;;;;;5092803;28;20032;-79
2022/11/19 11:20:36;;;;;;;2.08;1.38;;;10.00;99.90;;;;;;5092644;28;20135;-79
2022/11/19 11:23:18;;;;;;;1.33;1.02;;;9.70;99.90;;;;;;5093527;28;20046;-79
2022/11/19 11:25:51;;;;;;;;;;;9.80;99.90;;;;;;5092192;28;20074;-79
2022/11/19 11:28:19;;;;;;;1.10;1.00;;;9.90;99.90;;;;;;5072932;28;20421;-78
2022/11/19 11:30:56;;;;;;;2.17;1.20;;;9.90;99.90;;;;;;5072692;28;20024;-79
2022/11/19 11:33:33;;;;;;;1.25;0.95;;;10.00;99.90;;;;;;5071672;28;20074;-78
2022/11/19 11:36:01;;;;;;;1.65;1.00;;;10.10;99.90;;;;;;5072949;28;20029;-78
2022/11/19 11:38:28;;;;;;;0.88;0.88;;;10.20;99.90;;;;;;5072676;28;20031;-78
2022/11/19 11:41:04;;;;;;;2.63;1.42;;;10.20;99.90;;;;;;5073139;28;20087;-79
2022/11/19 11:43:32;;;;;;;1.73;1.10;;;9.80;99.90;;;;;;5113299;28;20024;-79
2022/11/19 11:46:01;;;;;;;1.67;1.25;;;9.60;99.90;;;;;;5113148;28;20531;-79
2022/11/19 11:48:40;;;;;;;1.77;1.17;;;9.50;99.90;;;;;;5113445;28;20032;-80
2022/11/19 11:51:06;;;;;;;2.65;1.15;;;9.40;99.90;;;;;;5094867;28;20016;-79
2022/11/19 11:53:32;;;;;;;1.65;1.05;;;9.30;99.90;;;;;;5092658;28;20436;-80
2022/11/19 11:56:00;;;;;;;2.38;1.45;;;9.30;99.90;;;;;;5091083;28;20523;-80
2022/11/19 11:58:30;;;;;;;1.65;1.13;;;9.20;99.90;;;;;;5092510;28;20516;-80
2022/11/19 12:01:18;;;;;;;1.35;1.10;;;9.20;99.90;;;;;;5092448;28;20028;-79
2022/11/19 12:03:56;;;;;;;2.38;1.13;;;9.20;99.90;;;;;;5092568;28;20016;-79
2022/11/19 12:06:38;;;;;;;1.20;1.10;;;9.20;99.90;;;;;;5091152;28;20497;-79
2022/11/19 12:09:15;;;;;;;1.45;1.10;;;9.30;99.90;;;;;;5090368;28;20025;-79
2022/11/19 12:11:59;;;;;;;1.27;1.10;;;9.50;99.90;;;;;;5092529;28;20024;-79
2022/11/19 12:14:48;;;;;;;1.10;1.00;;;9.60;99.90;;;;;;5092423;28;20028;-79
2022/11/19 12:17:20;;;;;;;1.17;1.08;;;9.70;99.90;;;;;;5092453;28;20028;-79
2022/11/19 12:20:07;;;;;;;2.28;1.50;;;9.80;99.90;;;;;;5092646;28;20114;-79
2022/11/19 12:22:48;;;;;;;2.35;1.85;;;9.60;99.90;;;;;;5091015;28;20097;-79
2022/11/19 12:25:17;;;;;;;4.25;2.20;;;9.70;99.90;;;;;;5092044;28;20052;-79
2022/11/19 12:28:09;;;;;;;2.58;2.10;;;9.70;99.90;;;;;;5074391;28;20056;-79
2022/11/19 12:30:44;;;;;;;2.75;1.90;;;9.60;99.90;;;;;;5071887;28;20120;-79
2022/11/19 12:33:15;;;;;;;3.88;2.60;;;9.60;99.90;;;;;;5072085;28;20112;-80
2022/11/19 12:36:01;;;;;;;3.67;2.78;;;9.50;99.90;;;;;;5070708;28;20082;-80
2022/11/19 12:38:38;;;;;;;5.13;2.83;;;9.40;99.90;;;;;;5071923;28;20032;-80
2022/11/19 12:41:13;;;;;;;3.58;2.75;;;9.40;99.90;;;;;;5075320;28;20489;-80
2022/11/19 12:43:52;;;;;;;6.43;2.95;;;9.40;99.90;;;;;;5112748;28;20035;-79
2022/11/19 12:46:39;;;;;;;6.40;3.28;;;9.30;99.90;;;;;;5111235;28;20114;-79
2022/11/19 12:49:26;;;;;;;3.58;2.63;;;9.50;99.90;;;;;;5111580;28;20023;-79
2022/11/19 12:52:16;;;;;;;3.38;2.50;;;9.70;99.90;;;;;;5092033;28;20024;-79
2022/11/19 12:55:13;;;;;;;3.55;2.80;;;9.70;99.90;;;;;;5092001;28;20027;-79
2022/11/19 12:57:39;;;;;;;6.68;3.33;;;9.70;99.90;;;;;;5092141;28;20035;-79
2022/11/19 13:00:17;;;;;;;5.60;4.07;;;9.50;99.90;;;;;;5090458;28;20020;-79
2022/11/19 13:03:13;;;;;;;7.22;5.85;;;9.40;99.90;;;;;;5090542;28;20032;-80
2022/11/19 13:06:02;;;;;;;8.45;6.65;;;9.40;99.90;;;;;;5092387;28;20058;-80
2022/11/19 13:09:07;;;;;;;15.27;10.93;;;9.30;99.90;;;;;;5091833;28;20039;-80
2022/11/19 13:11:43;;;;;;;15.63;12.40;;;9.20;99.90;;;;;;5089599;28;20036;-80
2022/11/19 13:14:39;;;;;;;13.48;10.70;;;9.10;99.90;;;;;;5090270;28;20016;-80
2022/11/19 13:17:17;;;;;;;12.73;9.90;;;9.30;99.90;;;;;;5091694;28;20020;-80
2022/11/19 13:19:48;;;;;;;9.02;8.13;;;9.60;99.90;;;;;;5091898;28;20036;-80
2022/11/19 13:22:22;;;;;;;10.23;8.38;;;9.80;99.90;;;;;;5091556;28;20047;-80
2022/11/19 13:24:53;;;;;;;13.75;10.35;;;9.80;99.90;;;;;;5089980;28;20070;-80
2022/11/19 13:27:22;;;;;;;13.05;9.20;;;9.70;99.90;;;;;;5075832;28;20074;-80
2022/11/19 13:30:03;;;;;;;12.25;9.52;;;9.70;99.90;;;;;;5071288;28;20032;-79
2022/11/19 13:32:49;;;;;;;12.77;8.57;;;9.70;99.90;;;;;;5071345;28;20017;-80
2022/11/19 13:35:33;;;;;;;11.27;8.20;;;9.70;99.90;;;;;;5071304;28;20259;-79
2022/11/19 13:38:10;;;;;;;9.82;7.15;;;9.70;99.90;;;;;;5071254;28;20028;-79